sensor_id;sensor_type;location;lat;lon;timestamp;P1;durP1;ratioP1;P2;durP2;ratioP2
8397;SDS011;4236;54.504;9.588;2023-04-03T00:01:02;5.73;;;5.33;;
8397;SDS011;4236;54.504;9.588;2023-04-03T00:03:31;5.77;;;5.37;;
8397;SDS011;4236;54.504;9.588;2023-04-03T00:05:59;5.50;;;5.10;;
8397;SDS011;4236;54.504;9.588;2023-04-03T00:08:27;5.67;;;5.03;;
8397;SDS011;4236;54.504;9.588;2023-04-03T00:10:56;6.13;;;5.67;;
8397;SDS011;4236;54.504;9.588;2023-04-03T00:13:24;5.17;;;4.87;;
8397;SDS011;4236;54.504;9.588;2023-04-03T00:15:52;6.20;;;5.60;;
8397;SDS011;4236;54.504;9.588;2023-04-03T00:18:22;7.20;;;6.57;;
8397;SDS011;4236;54.504;9.588;2023-04-03T00:20:49;6.77;;;6.17;;
8397;SDS011;4236;54.504;9.588;2023-04-03T00:23:17;6.50;;;5.90;;
8397;SDS011;4236;54.504;9.588;2023-04-03T00:25:45;6.63;;;6.03;;
8397;SDS011;4236;54.504;9.588;2023-04-03T00:28:13;6.23;;;5.83;;
8397;SDS011;4236;54.504;9.588;2023-04-03T00:30:40;5.73;;;5.33;;
8397;SDS011;4236;54.504;9.588;2023-04-03T00:33:08;7.33;;;6.70;;
8397;SDS011;4236;54.504;9.588;2023-04-03T00:35:39;5.90;;;5.50;;
8397;SDS011;4236;54.504;9.588;2023-04-03T00:38:08;6.43;;;6.03;;
8397;SDS011;4236;54.504;9.588;2023-04-03T00:40:36;6.57;;;5.90;;
8397;SDS011;4236;54.504;9.588;2023-04-03T00:43:10;6.70;;;5.53;;
8397;SDS011;4236;54.504;9.588;2023-04-03T00:45:40;7.00;;;6.20;;
8397;SDS011;4236;54.504;9.588;2023-04-03T00:48:10;7.30;;;6.57;;
8397;SDS011;4236;54.504;9.588;2023-04-03T00:50:42;11.67;;;8.10;;
8397;SDS011;4236;54.504;9.588;2023-04-03T00:53:12;7.00;;;6.50;;
8397;SDS011;4236;54.504;9.588;2023-04-03T00:55:43;6.80;;;6.30;;
8397;SDS011;4236;54.504;9.588;2023-04-03T00:58:14;7.00;;;6.50;;
8397;SDS011;4236;54.504;9.588;2023-04-03T01:00:46;6.00;;;5.70;;
8397;SDS011;4236;54.504;9.588;2023-04-03T01:03:17;6.80;;;6.50;;
8397;SDS011;4236;54.504;9.588;2023-04-03T01:05:47;8.87;;;6.80;;
8397;SDS011;4236;54.504;9.588;2023-04-03T01:08:15;6.43;;;5.93;;
8397;SDS011;4236;54.504;9.588;2023-04-03T01:10:43;7.60;;;6.30;;
8397;SDS011;4236;54.504;9.588;2023-04-03T01:13:18;6.90;;;6.50;;
8397;SDS011;4236;54.504;9.588;2023-04-03T01:15:47;7.23;;;6.47;;
8397;SDS011;4236;54.504;9.588;2023-04-03T01:18:16;6.80;;;6.27;;
8397;SDS011;4236;54.504;9.588;2023-04-03T01:20:50;7.27;;;6.50;;
8397;SDS011;4236;54.504;9.588;2023-04-03T01:23:43;5.93;;;5.63;;
8397;SDS011;4236;54.504;9.588;2023-04-03T01:26:18;6.17;;;5.77;;
8397;SDS011;4236;54.504;9.588;2023-04-03T01:28:46;6.67;;;6.03;;
8397;SDS011;4236;54.504;9.588;2023-04-03T01:31:16;10.03;;;8.60;;
8397;SDS011;4236;54.504;9.588;2023-04-03T01:33:49;7.23;;;6.73;;
8397;SDS011;4236;54.504;9.588;2023-04-03T01:36:17;7.50;;;7.20;;
8397;SDS011;4236;54.504;9.588;2023-04-03T01:38:47;8.63;;;8.17;;
8397;SDS011;4236;54.504;9.588;2023-04-03T01:41:14;10.43;;;9.63;;
8397;SDS011;4236;54.504;9.588;2023-04-03T01:43:42;8.37;;;7.83;;
8397;SDS011;4236;54.504;9.588;2023-04-03T01:46:10;8.37;;;7.87;;
8397;SDS011;4236;54.504;9.588;2023-04-03T01:48:38;9.10;;;8.43;;
8397;SDS011;4236;54.504;9.588;2023-04-03T01:51:08;9.37;;;8.73;;
8397;SDS011;4236;54.504;9.588;2023-04-03T01:53:36;9.57;;;8.77;;
8397;SDS011;4236;54.504;9.588;2023-04-03T01:56:04;8.67;;;8.10;;
8397;SDS011;4236;54.504;9.588;2023-04-03T01:58:32;8.60;;;8.17;;
8397;SDS011;4236;54.504;9.588;2023-04-03T02:01:00;8.57;;;8.03;;
8397;SDS011;4236;54.504;9.588;2023-04-03T02:03:28;10.10;;;8.90;;
8397;SDS011;4236;54.504;9.588;2023-04-03T02:05:57;8.37;;;7.87;;
8397;SDS011;4236;54.504;9.588;2023-04-03T02:08:27;8.40;;;8.00;;
8397;SDS011;4236;54.504;9.588;2023-04-03T02:10:54;9.50;;;8.80;;
8397;SDS011;4236;54.504;9.588;2023-04-03T02:13:22;9.30;;;8.50;;
8397;SDS011;4236;54.504;9.588;2023-04-03T02:15:50;7.97;;;7.67;;
8397;SDS011;4236;54.504;9.588;2023-04-03T02:18:17;7.80;;;7.30;;
8397;SDS011;4236;54.504;9.588;2023-04-03T02:20:46;8.70;;;8.10;;
8397;SDS011;4236;54.504;9.588;2023-04-03T02:23:13;8.07;;;7.53;;
8397;SDS011;4236;54.504;9.588;2023-04-03T02:25:42;9.60;;;8.90;;
8397;SDS011;4236;54.504;9.588;2023-04-03T02:28:10;9.00;;;8.40;;
8397;SDS011;4236;54.504;9.588;2023-04-03T02:30:38;8.17;;;7.77;;
8397;SDS011;4236;54.504;9.588;2023-04-03T02:33:06;9.73;;;9.07;;
8397;SDS011;4236;54.504;9.588;2023-04-03T02:35:33;9.67;;;9.07;;
8397;SDS011;4236;54.504;9.588;2023-04-03T02:38:01;10.10;;;9.50;;
8397;SDS011;4236;54.504;9.588;2023-04-03T02:40:28;9.10;;;8.33;;
8397;SDS011;4236;54.504;9.588;2023-04-03T02:42:58;9.10;;;8.53;;
8397;SDS011;4236;54.504;9.588;2023-04-03T02:45:25;9.40;;;8.70;;
8397;SDS011;4236;54.504;9.588;2023-04-03T02:47:53;9.90;;;7.90;;
8397;SDS011;4236;54.504;9.588;2023-04-03T02:50:21;8.10;;;7.60;;
8397;SDS011;4236;54.504;9.588;2023-04-03T02:52:49;7.80;;;7.40;;
8397;SDS011;4236;54.504;9.588;2023-04-03T02:55:16;8.03;;;7.53;;
8397;SDS011;4236;54.504;9.588;2023-04-03T02:57:44;8.73;;;8.20;;
8397;SDS011;4236;54.504;9.588;2023-04-03T03:00:13;8.30;;;7.70;;
8397;SDS011;4236;54.504;9.588;2023-04-03T03:02:42;8.77;;;8.17;;
8397;SDS011;4236;54.504;9.588;2023-04-03T03:05:09;8.00;;;7.30;;
8397;SDS011;4236;54.504;9.588;2023-04-03T03:07:37;7.27;;;6.87;;
8397;SDS011;4236;54.504;9.588;2023-04-03T03:10:05;9.97;;;9.00;;
8397;SDS011;4236;54.504;9.588;2023-04-03T03:12:34;9.00;;;8.30;;
8397;SDS011;4236;54.504;9.588;2023-04-03T03:15:01;10.10;;;9.30;;
8397;SDS011;4236;54.504;9.588;2023-04-03T03:17:30;8.80;;;8.00;;
8397;SDS011;4236;54.504;9.588;2023-04-03T03:19:58;8.70;;;8.10;;
8397;SDS011;4236;54.504;9.588;2023-04-03T03:22:26;9.43;;;8.70;;
8397;SDS011;4236;54.504;9.588;2023-04-03T03:24:57;8.70;;;8.07;;
8397;SDS011;4236;54.504;9.588;2023-04-03T03:27:24;9.50;;;8.90;;
8397;SDS011;4236;54.504;9.588;2023-04-03T03:29:52;10.67;;;9.70;;
8397;SDS011;4236;54.504;9.588;2023-04-03T03:32:19;8.00;;;7.50;;
8397;SDS011;4236;54.504;9.588;2023-04-03T03:34:48;8.60;;;8.20;;
8397;SDS011;4236;54.504;9.588;2023-04-03T03:37:16;9.87;;;9.13;;
8397;SDS011;4236;54.504;9.588;2023-04-03T03:39:44;9.27;;;8.67;;
8397;SDS011;4236;54.504;9.588;2023-04-03T03:42:11;10.03;;;9.17;;
8397;SDS011;4236;54.504;9.588;2023-04-03T03:44:39;8.80;;;8.23;;
8397;SDS011;4236;54.504;9.588;2023-04-03T03:47:07;9.30;;;8.60;;
8397;SDS011;4236;54.504;9.588;2023-04-03T03:49:36;8.73;;;7.90;;
8397;SDS011;4236;54.504;9.588;2023-04-03T03:52:06;8.77;;;8.30;;
8397;SDS011;4236;54.504;9.588;2023-04-03T03:54:36;9.17;;;8.37;;
8397;SDS011;4236;54.504;9.588;2023-04-03T03:57:04;9.90;;;9.10;;
8397;SDS011;4236;54.504;9.588;2023-04-03T03:59:32;8.70;;;7.87;;
8397;SDS011;4236;54.504;9.588;2023-04-03T04:01:59;9.90;;;9.20;;
8397;SDS011;4236;54.504;9.588;2023-04-03T04:04:27;9.53;;;8.23;;
8397;SDS011;4236;54.504;9.588;2023-04-03T04:06:55;10.47;;;9.63;;
8397;SDS011;4236;54.504;9.588;2023-04-03T04:09:24;9.37;;;8.60;;
8397;SDS011;4236;54.504;9.588;2023-04-03T04:11:51;9.83;;;8.47;;
8397;SDS011;4236;54.504;9.588;2023-04-03T04:14:19;10.73;;;9.00;;
8397;SDS011;4236;54.504;9.588;2023-04-03T04:16:47;9.30;;;8.50;;
8397;SDS011;4236;54.504;9.588;2023-04-03T04:19:15;9.43;;;8.77;;
8397;SDS011;4236;54.504;9.588;2023-04-03T04:21:43;10.30;;;9.37;;
8397;SDS011;4236;54.504;9.588;2023-04-03T04:24:10;10.47;;;9.67;;
8397;SDS011;4236;54.504;9.588;2023-04-03T04:26:39;10.83;;;9.40;;
8397;SDS011;4236;54.504;9.588;2023-04-03T04:29:08;12.03;;;10.97;;
8397;SDS011;4236;54.504;9.588;2023-04-03T04:31:36;14.90;;;11.03;;
8397;SDS011;4236;54.504;9.588;2023-04-03T04:34:04;10.50;;;9.70;;
8397;SDS011;4236;54.504;9.588;2023-04-03T04:36:32;10.50;;;10.00;;
8397;SDS011;4236;54.504;9.588;2023-04-03T04:38:59;12.10;;;11.20;;
8397;SDS011;4236;54.504;9.588;2023-04-03T04:41:27;10.57;;;9.87;;
8397;SDS011;4236;54.504;9.588;2023-04-03T04:43:56;10.93;;;10.13;;
8397;SDS011;4236;54.504;9.588;2023-04-03T04:46:24;11.47;;;10.73;;
8397;SDS011;4236;54.504;9.588;2023-04-03T04:48:52;11.03;;;10.30;;
8397;SDS011;4236;54.504;9.588;2023-04-03T04:51:20;11.80;;;10.80;;
8397;SDS011;4236;54.504;9.588;2023-04-03T04:53:47;10.77;;;9.97;;
8397;SDS011;4236;54.504;9.588;2023-04-03T04:56:15;11.73;;;10.93;;
8397;SDS011;4236;54.504;9.588;2023-04-03T04:58:43;10.97;;;10.47;;
8397;SDS011;4236;54.504;9.588;2023-04-03T05:01:12;11.80;;;10.97;;
8397;SDS011;4236;54.504;9.588;2023-04-03T05:03:40;12.53;;;11.43;;
8397;SDS011;4236;54.504;9.588;2023-04-03T05:06:07;11.23;;;10.33;;
8397;SDS011;4236;54.504;9.588;2023-04-03T05:08:35;11.83;;;10.97;;
8397;SDS011;4236;54.504;9.588;2023-04-03T05:11:03;12.40;;;11.33;;
8397;SDS011;4236;54.504;9.588;2023-04-03T05:13:31;12.27;;;11.30;;
8397;SDS011;4236;54.504;9.588;2023-04-03T05:15:58;12.10;;;11.40;;
8397;SDS011;4236;54.504;9.588;2023-04-03T05:18:28;12.30;;;11.20;;
8397;SDS011;4236;54.504;9.588;2023-04-03T05:20:55;11.93;;;10.93;;
8397;SDS011;4236;54.504;9.588;2023-04-03T05:23:23;12.67;;;11.67;;
8397;SDS011;4236;54.504;9.588;2023-04-03T05:25:51;12.77;;;11.70;;
8397;SDS011;4236;54.504;9.588;2023-04-03T05:28:20;11.17;;;10.23;;
8397;SDS011;4236;54.504;9.588;2023-04-03T05:30:52;13.87;;;11.93;;
8397;SDS011;4236;54.504;9.588;2023-04-03T05:33:20;12.23;;;11.23;;
8397;SDS011;4236;54.504;9.588;2023-04-03T05:35:49;12.70;;;11.70;;
8397;SDS011;4236;54.504;9.588;2023-04-03T05:38:17;11.63;;;11.00;;
8397;SDS011;4236;54.504;9.588;2023-04-03T05:40:46;13.93;;;12.80;;
8397;SDS011;4236;54.504;9.588;2023-04-03T05:43:13;33.17;;;24.40;;
8397;SDS011;4236;54.504;9.588;2023-04-03T05:45:42;54.77;;;38.97;;
8397;SDS011;4236;54.504;9.588;2023-04-03T05:48:12;29.83;;;24.90;;
8397;SDS011;4236;54.504;9.588;2023-04-03T05:50:39;16.20;;;14.77;;
8397;SDS011;4236;54.504;9.588;2023-04-03T05:53:10;12.50;;;11.40;;
8397;SDS011;4236;54.504;9.588;2023-04-03T05:55:45;10.40;;;9.40;;
8397;SDS011;4236;54.504;9.588;2023-04-03T05:58:12;9.50;;;8.90;;
8397;SDS011;4236;54.504;9.588;2023-04-03T06:00:40;8.33;;;7.73;;
8397;SDS011;4236;54.504;9.588;2023-04-03T06:03:08;8.00;;;7.50;;
8397;SDS011;4236;54.504;9.588;2023-04-03T06:05:36;8.30;;;7.60;;
8397;SDS011;4236;54.504;9.588;2023-04-03T06:08:04;10.67;;;9.87;;
8397;SDS011;4236;54.504;9.588;2023-04-03T06:10:34;10.13;;;9.20;;
8397;SDS011;4236;54.504;9.588;2023-04-03T06:13:03;8.80;;;8.10;;
8397;SDS011;4236;54.504;9.588;2023-04-03T06:15:30;9.10;;;8.43;;
8397;SDS011;4236;54.504;9.588;2023-04-03T06:17:58;7.60;;;6.97;;
8397;SDS011;4236;54.504;9.588;2023-04-03T06:20:25;15.60;;;8.23;;
8397;SDS011;4236;54.504;9.588;2023-04-03T06:22:53;7.53;;;7.03;;
8397;SDS011;4236;54.504;9.588;2023-04-03T06:25:21;7.43;;;7.00;;
8397;SDS011;4236;54.504;9.588;2023-04-03T06:27:50;7.27;;;6.63;;
8397;SDS011;4236;54.504;9.588;2023-04-03T06:30:18;7.43;;;6.73;;
8397;SDS011;4236;54.504;9.588;2023-04-03T06:32:46;10.07;;;9.37;;
8397;SDS011;4236;54.504;9.588;2023-04-03T06:35:13;9.73;;;8.73;;
8397;SDS011;4236;54.504;9.588;2023-04-03T06:37:42;7.47;;;6.70;;
8397;SDS011;4236;54.504;9.588;2023-04-03T06:40:11;7.10;;;6.50;;
8397;SDS011;4236;54.504;9.588;2023-04-03T06:42:45;7.40;;;6.90;;
8397;SDS011;4236;54.504;9.588;2023-04-03T06:45:14;7.30;;;6.70;;
8397;SDS011;4236;54.504;9.588;2023-04-03T06:47:42;8.03;;;7.43;;
8397;SDS011;4236;54.504;9.588;2023-04-03T06:50:10;9.63;;;8.83;;
8397;SDS011;4236;54.504;9.588;2023-04-03T06:52:40;10.97;;;8.77;;
8397;SDS011;4236;54.504;9.588;2023-04-03T06:55:08;8.60;;;7.90;;
8397;SDS011;4236;54.504;9.588;2023-04-03T06:57:37;7.80;;;7.17;;
8397;SDS011;4236;54.504;9.588;2023-04-03T07:00:05;9.93;;;7.40;;
8397;SDS011;4236;54.504;9.588;2023-04-03T07:02:36;7.70;;;7.20;;
8397;SDS011;4236;54.504;9.588;2023-04-03T07:05:04;8.90;;;8.23;;
8397;SDS011;4236;54.504;9.588;2023-04-03T07:07:33;8.60;;;8.00;;
8397;SDS011;4236;54.504;9.588;2023-04-03T07:10:01;8.20;;;7.60;;
8397;SDS011;4236;54.504;9.588;2023-04-03T07:12:29;8.50;;;7.83;;
8397;SDS011;4236;54.504;9.588;2023-04-03T07:14:57;8.90;;;8.30;;
8397;SDS011;4236;54.504;9.588;2023-04-03T07:17:24;8.60;;;8.03;;
8397;SDS011;4236;54.504;9.588;2023-04-03T07:19:54;9.60;;;9.00;;
8397;SDS011;4236;54.504;9.588;2023-04-03T07:22:22;10.57;;;9.47;;
8397;SDS011;4236;54.504;9.588;2023-04-03T07:24:49;9.97;;;9.27;;
8397;SDS011;4236;54.504;9.588;2023-04-03T07:27:17;9.47;;;8.63;;
8397;SDS011;4236;54.504;9.588;2023-04-03T07:29:45;10.70;;;9.60;;
8397;SDS011;4236;54.504;9.588;2023-04-03T07:32:14;10.67;;;9.77;;
8397;SDS011;4236;54.504;9.588;2023-04-03T07:34:42;10.27;;;9.23;;
8397;SDS011;4236;54.504;9.588;2023-04-03T07:37:11;8.47;;;7.83;;
8397;SDS011;4236;54.504;9.588;2023-04-03T07:39:39;9.30;;;8.50;;
8397;SDS011;4236;54.504;9.588;2023-04-03T07:42:08;9.30;;;8.33;;
8397;SDS011;4236;54.504;9.588;2023-04-03T07:44:36;9.70;;;8.80;;
8397;SDS011;4236;54.504;9.588;2023-04-03T07:47:04;9.10;;;8.30;;
8397;SDS011;4236;54.504;9.588;2023-04-03T07:49:32;8.17;;;7.57;;
8397;SDS011;4236;54.504;9.588;2023-04-03T07:52:00;9.30;;;8.40;;
8397;SDS011;4236;54.504;9.588;2023-04-03T07:54:29;9.53;;;8.83;;
8397;SDS011;4236;54.504;9.588;2023-04-03T07:56:57;10.53;;;9.60;;
8397;SDS011;4236;54.504;9.588;2023-04-03T07:59:25;9.40;;;8.90;;
8397;SDS011;4236;54.504;9.588;2023-04-03T08:01:53;9.50;;;8.90;;
8397;SDS011;4236;54.504;9.588;2023-04-03T08:04:20;10.30;;;9.50;;
8397;SDS011;4236;54.504;9.588;2023-04-03T08:06:48;9.90;;;9.10;;
8397;SDS011;4236;54.504;9.588;2023-04-03T08:09:16;11.53;;;10.60;;
8397;SDS011;4236;54.504;9.588;2023-04-03T08:11:46;11.53;;;10.70;;
8397;SDS011;4236;54.504;9.588;2023-04-03T08:14:14;12.43;;;11.33;;
8397;SDS011;4236;54.504;9.588;2023-04-03T08:16:45;10.87;;;9.97;;
8397;SDS011;4236;54.504;9.588;2023-04-03T08:19:14;11.07;;;10.03;;
8397;SDS011;4236;54.504;9.588;2023-04-03T08:21:51;10.67;;;9.97;;
8397;SDS011;4236;54.504;9.588;2023-04-03T08:24:20;10.73;;;10.03;;
8397;SDS011;4236;54.504;9.588;2023-04-03T08:26:48;10.50;;;9.80;;
8397;SDS011;4236;54.504;9.588;2023-04-03T08:29:16;10.73;;;9.83;;
8397;SDS011;4236;54.504;9.588;2023-04-03T08:31:44;11.83;;;10.43;;
8397;SDS011;4236;54.504;9.588;2023-04-03T08:34:12;10.83;;;10.03;;
8397;SDS011;4236;54.504;9.588;2023-04-03T08:36:40;10.30;;;9.50;;
8397;SDS011;4236;54.504;9.588;2023-04-03T08:39:08;9.70;;;8.80;;
8397;SDS011;4236;54.504;9.588;2023-04-03T08:41:37;9.70;;;9.00;;
8397;SDS011;4236;54.504;9.588;2023-04-03T08:44:14;10.23;;;9.13;;
8397;SDS011;4236;54.504;9.588;2023-04-03T08:49:37;9.73;;;9.00;;
8397;SDS011;4236;54.504;9.588;2023-04-03T08:52:15;11.00;;;10.10;;
8397;SDS011;4236;54.504;9.588;2023-04-03T08:54:48;11.50;;;10.10;;
8397;SDS011;4236;54.504;9.588;2023-04-03T08:57:19;11.80;;;10.40;;
8397;SDS011;4236;54.504;9.588;2023-04-03T08:59:55;8.70;;;8.20;;
8397;SDS011;4236;54.504;9.588;2023-04-03T09:02:25;11.43;;;10.47;;
8397;SDS011;4236;54.504;9.588;2023-04-03T09:04:59;10.77;;;9.80;;
8397;SDS011;4236;54.504;9.588;2023-04-03T09:07:31;10.27;;;9.53;;
8397;SDS011;4236;54.504;9.588;2023-04-03T09:10:04;13.60;;;9.97;;
8397;SDS011;4236;54.504;9.588;2023-04-03T09:12:33;9.43;;;8.83;;
8397;SDS011;4236;54.504;9.588;2023-04-03T09:15:09;10.10;;;9.40;;
8397;SDS011;4236;54.504;9.588;2023-04-03T09:17:53;9.47;;;8.70;;
8397;SDS011;4236;54.504;9.588;2023-04-03T09:20:29;9.80;;;8.90;;
8397;SDS011;4236;54.504;9.588;2023-04-03T09:23:10;9.17;;;8.57;;
8397;SDS011;4236;54.504;9.588;2023-04-03T09:25:44;8.97;;;8.17;;
8397;SDS011;4236;54.504;9.588;2023-04-03T09:28:12;9.50;;;8.60;;
8397;SDS011;4236;54.504;9.588;2023-04-03T09:30:41;9.43;;;8.60;;
8397;SDS011;4236;54.504;9.588;2023-04-03T09:33:09;11.17;;;10.27;;
8397;SDS011;4236;54.504;9.588;2023-04-03T09:35:38;10.73;;;10.03;;
8397;SDS011;4236;54.504;9.588;2023-04-03T09:38:15;10.10;;;9.33;;
8397;SDS011;4236;54.504;9.588;2023-04-03T09:40:49;10.03;;;9.43;;
8397;SDS011;4236;54.504;9.588;2023-04-03T09:43:23;10.50;;;9.50;;
8397;SDS011;4236;54.504;9.588;2023-04-03T09:46:15;9.50;;;9.00;;
8397;SDS011;4236;54.504;9.588;2023-04-03T09:48:50;8.70;;;8.27;;
8397;SDS011;4236;54.504;9.588;2023-04-03T09:51:33;8.77;;;8.37;;
8397;SDS011;4236;54.504;9.588;2023-04-03T09:54:02;9.77;;;8.83;;
8397;SDS011;4236;54.504;9.588;2023-04-03T09:57:10;8.70;;;8.20;;
8397;SDS011;4236;54.504;9.588;2023-04-03T09:59:41;9.23;;;8.30;;
8397;SDS011;4236;54.504;9.588;2023-04-03T10:02:25;9.60;;;8.80;;
8397;SDS011;4236;54.504;9.588;2023-04-03T10:04:59;9.40;;;8.70;;
8397;SDS011;4236;54.504;9.588;2023-04-03T10:07:31;8.57;;;8.00;;
8397;SDS011;4236;54.504;9.588;2023-04-03T10:10:10;9.10;;;8.20;;
8397;SDS011;4236;54.504;9.588;2023-04-03T10:12:44;7.50;;;7.20;;
8397;SDS011;4236;54.504;9.588;2023-04-03T10:15:12;8.27;;;7.67;;
8397;SDS011;4236;54.504;9.588;2023-04-03T10:17:49;9.10;;;8.43;;
8397;SDS011;4236;54.504;9.588;2023-04-03T10:20:25;8.63;;;7.83;;
8397;SDS011;4236;54.504;9.588;2023-04-03T10:23:01;8.30;;;7.83;;
8397;SDS011;4236;54.504;9.588;2023-04-03T10:25:40;8.03;;;7.43;;
8397;SDS011;4236;54.504;9.588;2023-04-03T10:28:12;10.83;;;7.40;;
8397;SDS011;4236;54.504;9.588;2023-04-03T10:30:47;8.27;;;7.57;;
8397;SDS011;4236;54.504;9.588;2023-04-03T10:33:29;6.77;;;6.37;;
8397;SDS011;4236;54.504;9.588;2023-04-03T10:36:07;8.00;;;7.50;;
8397;SDS011;4236;54.504;9.588;2023-04-03T10:38:48;7.67;;;7.03;;
8397;SDS011;4236;54.504;9.588;2023-04-03T10:41:23;9.83;;;8.90;;
8397;SDS011;4236;54.504;9.588;2023-04-03T10:44:00;8.97;;;8.30;;
8397;SDS011;4236;54.504;9.588;2023-04-03T10:46:41;7.00;;;6.60;;
8397;SDS011;4236;54.504;9.588;2023-04-03T10:49:19;7.07;;;6.57;;
8397;SDS011;4236;54.504;9.588;2023-04-03T10:51:58;6.60;;;6.20;;
8397;SDS011;4236;54.504;9.588;2023-04-03T10:54:34;6.50;;;6.10;;
8397;SDS011;4236;54.504;9.588;2023-04-03T10:57:08;6.40;;;6.00;;
8397;SDS011;4236;54.504;9.588;2023-04-03T10:59:40;5.77;;;5.37;;
8397;SDS011;4236;54.504;9.588;2023-04-03T11:02:12;6.00;;;5.60;;
8397;SDS011;4236;54.504;9.588;2023-04-03T11:04:50;6.17;;;5.77;;
8397;SDS011;4236;54.504;9.588;2023-04-03T11:07:21;10.77;;;5.87;;
8397;SDS011;4236;54.504;9.588;2023-04-03T11:09:53;5.40;;;5.10;;
8397;SDS011;4236;54.504;9.588;2023-04-03T11:12:26;5.23;;;4.93;;
8397;SDS011;4236;54.504;9.588;2023-04-03T11:15:00;7.30;;;4.73;;
8397;SDS011;4236;54.504;9.588;2023-04-03T11:17:31;5.30;;;4.90;;
8397;SDS011;4236;54.504;9.588;2023-04-03T11:20:06;5.17;;;4.80;;
8397;SDS011;4236;54.504;9.588;2023-04-03T11:22:43;4.87;;;4.57;;
8397;SDS011;4236;54.504;9.588;2023-04-03T11:25:15;5.90;;;4.70;;
8397;SDS011;4236;54.504;9.588;2023-04-03T11:27:49;5.30;;;4.90;;
8397;SDS011;4236;54.504;9.588;2023-04-03T11:30:23;4.90;;;4.60;;
8397;SDS011;4236;54.504;9.588;2023-04-03T11:33:01;6.60;;;4.43;;
8397;SDS011;4236;54.504;9.588;2023-04-03T11:35:48;5.03;;;4.60;;
8397;SDS011;4236;54.504;9.588;2023-04-03T11:38:21;4.57;;;4.33;;
8397;SDS011;4236;54.504;9.588;2023-04-03T11:40:53;4.40;;;4.20;;
8397;SDS011;4236;54.504;9.588;2023-04-03T11:43:23;4.53;;;4.23;;
8397;SDS011;4236;54.504;9.588;2023-04-03T11:45:53;4.60;;;4.20;;
8397;SDS011;4236;54.504;9.588;2023-04-03T11:54:36;6.00;;;4.00;;
8397;SDS011;4236;54.504;9.588;2023-04-03T12:09:24;3.63;;;3.33;;
8397;SDS011;4236;54.504;9.588;2023-04-03T12:11:54;4.17;;;3.60;;
8397;SDS011;4236;54.504;9.588;2023-04-03T12:14:24;6.40;;;3.60;;
8397;SDS011;4236;54.504;9.588;2023-04-03T12:16:53;3.27;;;3.17;;
8397;SDS011;4236;54.504;9.588;2023-04-03T12:19:29;3.07;;;2.87;;
8397;SDS011;4236;54.504;9.588;2023-04-03T12:22:12;7.07;;;4.23;;
8397;SDS011;4236;54.504;9.588;2023-04-03T12:24:43;3.80;;;2.87;;
8397;SDS011;4236;54.504;9.588;2023-04-03T12:27:26;3.43;;;3.23;;
8397;SDS011;4236;54.504;9.588;2023-04-03T12:30:00;3.53;;;3.23;;
8397;SDS011;4236;54.504;9.588;2023-04-03T12:32:48;3.13;;;2.93;;
8397;SDS011;4236;54.504;9.588;2023-04-03T12:35:38;3.00;;;2.80;;
8397;SDS011;4236;54.504;9.588;2023-04-03T12:38:15;3.20;;;2.60;;
8397;SDS011;4236;54.504;9.588;2023-04-03T12:40:58;3.67;;;3.40;;
8397;SDS011;4236;54.504;9.588;2023-04-03T12:43:43;3.33;;;3.13;;
8397;SDS011;4236;54.504;9.588;2023-04-03T12:46:23;3.37;;;3.13;;
8397;SDS011;4236;54.504;9.588;2023-04-03T12:48:56;4.50;;;2.80;;
8397;SDS011;4236;54.504;9.588;2023-04-03T12:51:28;3.10;;;2.80;;
8397;SDS011;4236;54.504;9.588;2023-04-03T12:54:02;14.63;;;4.23;;
8397;SDS011;4236;54.504;9.588;2023-04-03T12:56:41;3.30;;;3.10;;
8397;SDS011;4236;54.504;9.588;2023-04-03T12:59:13;3.97;;;3.63;;
8397;SDS011;4236;54.504;9.588;2023-04-03T13:01:43;3.17;;;2.87;;
8397;SDS011;4236;54.504;9.588;2023-04-03T13:04:11;3.20;;;3.00;;
8397;SDS011;4236;54.504;9.588;2023-04-03T13:06:40;3.53;;;3.23;;
8397;SDS011;4236;54.504;9.588;2023-04-03T13:09:17;3.33;;;3.13;;
8397;SDS011;4236;54.504;9.588;2023-04-03T13:11:49;10.00;;;5.87;;
8397;SDS011;4236;54.504;9.588;2023-04-03T13:14:19;19.57;;;10.73;;
8397;SDS011;4236;54.504;9.588;2023-04-03T13:16:54;8.17;;;7.40;;
8397;SDS011;4236;54.504;9.588;2023-04-03T13:19:23;9.37;;;8.73;;
8397;SDS011;4236;54.504;9.588;2023-04-03T13:21:56;4.43;;;4.10;;
8397;SDS011;4236;54.504;9.588;2023-04-03T13:24:29;4.40;;;3.87;;
8397;SDS011;4236;54.504;9.588;2023-04-03T13:27:01;6.10;;;5.60;;
8397;SDS011;4236;54.504;9.588;2023-04-03T13:29:30;3.70;;;3.30;;
8397;SDS011;4236;54.504;9.588;2023-04-03T13:32:00;5.87;;;5.17;;
8397;SDS011;4236;54.504;9.588;2023-04-03T13:34:35;4.10;;;3.80;;
8397;SDS011;4236;54.504;9.588;2023-04-03T13:37:05;4.20;;;3.90;;
8397;SDS011;4236;54.504;9.588;2023-04-03T13:39:35;3.57;;;3.47;;
8397;SDS011;4236;54.504;9.588;2023-04-03T13:42:16;3.10;;;2.90;;
8397;SDS011;4236;54.504;9.588;2023-04-03T13:44:48;5.17;;;3.20;;
8397;SDS011;4236;54.504;9.588;2023-04-03T13:47:17;3.83;;;3.53;;
8397;SDS011;4236;54.504;9.588;2023-04-03T13:49:58;3.50;;;3.30;;
8397;SDS011;4236;54.504;9.588;2023-04-03T13:52:28;7.73;;;3.93;;
8397;SDS011;4236;54.504;9.588;2023-04-03T13:54:59;5.03;;;3.27;;
8397;SDS011;4236;54.504;9.588;2023-04-03T13:57:36;3.50;;;3.30;;
8397;SDS011;4236;54.504;9.588;2023-04-03T14:00:28;5.60;;;3.83;;
8397;SDS011;4236;54.504;9.588;2023-04-03T14:03:00;3.60;;;3.30;;
8397;SDS011;4236;54.504;9.588;2023-04-03T14:05:28;3.50;;;3.30;;
8397;SDS011;4236;54.504;9.588;2023-04-03T14:07:56;5.93;;;3.30;;
8397;SDS011;4236;54.504;9.588;2023-04-03T14:10:25;4.20;;;3.50;;
8397;SDS011;4236;54.504;9.588;2023-04-03T14:12:53;3.70;;;3.40;;
8397;SDS011;4236;54.504;9.588;2023-04-03T14:15:22;3.10;;;2.90;;
8397;SDS011;4236;54.504;9.588;2023-04-03T14:17:51;3.20;;;2.90;;
8397;SDS011;4236;54.504;9.588;2023-04-03T14:20:20;5.27;;;3.50;;
8397;SDS011;4236;54.504;9.588;2023-04-03T14:22:50;4.30;;;2.90;;
8397;SDS011;4236;54.504;9.588;2023-04-03T14:25:20;3.30;;;3.00;;
8397;SDS011;4236;54.504;9.588;2023-04-03T14:27:50;3.20;;;3.00;;
8397;SDS011;4236;54.504;9.588;2023-04-03T14:30:22;3.93;;;3.20;;
8397;SDS011;4236;54.504;9.588;2023-04-03T14:32:51;3.90;;;2.90;;
8397;SDS011;4236;54.504;9.588;2023-04-03T14:35:19;3.67;;;3.37;;
8397;SDS011;4236;54.504;9.588;2023-04-03T14:37:50;3.87;;;3.53;;
8397;SDS011;4236;54.504;9.588;2023-04-03T14:40:20;5.57;;;4.13;;
8397;SDS011;4236;54.504;9.588;2023-04-03T14:42:50;4.53;;;2.90;;
8397;SDS011;4236;54.504;9.588;2023-04-03T14:45:22;3.30;;;3.03;;
8397;SDS011;4236;54.504;9.588;2023-04-03T14:47:51;3.43;;;3.23;;
8397;SDS011;4236;54.504;9.588;2023-04-03T14:50:20;4.80;;;3.70;;
8397;SDS011;4236;54.504;9.588;2023-04-03T14:52:50;3.20;;;3.00;;
8397;SDS011;4236;54.504;9.588;2023-04-03T14:55:21;3.67;;;3.40;;
8397;SDS011;4236;54.504;9.588;2023-04-03T14:57:51;3.73;;;3.53;;
8397;SDS011;4236;54.504;9.588;2023-04-03T15:00:21;3.30;;;3.00;;
8397;SDS011;4236;54.504;9.588;2023-04-03T15:02:50;3.30;;;3.10;;
8397;SDS011;4236;54.504;9.588;2023-04-03T15:05:18;3.40;;;3.10;;
8397;SDS011;4236;54.504;9.588;2023-04-03T15:07:47;3.50;;;3.20;;
8397;SDS011;4236;54.504;9.588;2023-04-03T15:10:18;3.27;;;3.07;;
8397;SDS011;4236;54.504;9.588;2023-04-03T15:12:48;3.80;;;3.50;;
8397;SDS011;4236;54.504;9.588;2023-04-03T15:15:17;8.40;;;3.73;;
8397;SDS011;4236;54.504;9.588;2023-04-03T15:17:48;3.80;;;3.50;;
8397;SDS011;4236;54.504;9.588;2023-04-03T15:20:21;3.53;;;3.23;;
8397;SDS011;4236;54.504;9.588;2023-04-03T15:22:50;7.00;;;6.13;;
8397;SDS011;4236;54.504;9.588;2023-04-03T15:25:18;4.70;;;4.30;;
8397;SDS011;4236;54.504;9.588;2023-04-03T15:27:46;3.53;;;3.23;;
8397;SDS011;4236;54.504;9.588;2023-04-03T15:30:15;5.20;;;3.43;;
8397;SDS011;4236;54.504;9.588;2023-04-03T15:32:45;3.50;;;3.20;;
8397;SDS011;4236;54.504;9.588;2023-04-03T15:35:14;3.70;;;3.10;;
8397;SDS011;4236;54.504;9.588;2023-04-03T15:37:42;4.53;;;3.50;;
8397;SDS011;4236;54.504;9.588;2023-04-03T15:40:10;3.20;;;3.00;;
8397;SDS011;4236;54.504;9.588;2023-04-03T15:42:38;3.97;;;3.57;;
8397;SDS011;4236;54.504;9.588;2023-04-03T15:45:07;2.90;;;2.80;;
8397;SDS011;4236;54.504;9.588;2023-04-03T15:47:35;5.63;;;3.13;;
8397;SDS011;4236;54.504;9.588;2023-04-03T15:50:05;5.60;;;3.03;;
8397;SDS011;4236;54.504;9.588;2023-04-03T15:52:34;5.97;;;3.70;;